LFRI 210400Z AUTO 03005KT CAVOK M01/M02 Q1036

ElémentsDécodage
LFRI Station météo située sur l'aérodrome de LA-ROCHE-SUR-YON Les-Ajoncs
210400Z émis le 21 du mois à 04h00 UTC
AUTO Bulletin édité par un automate
03005KT vent du 030°, 05 noeuds
CAVOK Ceiling And Visibility OK
- Visibilité de 10 Km ou plus
- Pas de nuage au-dessous de 1500m ou au-dessous de l'altitude minimale du secteur la plus élevée (si>1500m) et absence de CB
- pas de temps présent significatif
M01/M02 température -01°C, point de rosée -02°C
 soit une humidité relative de 93%
Q1036 la pression au niveau de la mer (QNH) est de 1036 hPa